Historique des mesures à Cassis (13260), France
Quotidien Résumé Juillet 6, 2018 Unités:  Métrique    US   Métrique/US
« Précédent (Jour)
Suivant (Jour) »
Quotidien Hebdomadaire Mensuel Annuel Période au choix
  Maximum: Minimum: Moyenne:
Température: TemperatureC °C 22.1 °C 25.3 °C
Point de rosée: DewpointC °C 11.9 °C 14.3 °C
Humidité: Humidity % 42 % 48 %
Vitesse du vent: 0 km/h 9.8 km/h 24.6 km/h
Rafales: 0 km/h - -
Vent:- - SW
Pression: PressurehPa hPa 1010.0 hPa -
Précipitations: 0.0 mm    
Historical Graphs
 
 
Mesures pour : Juillet 6, 2018
Heure Temperature Point de rosée Pression Vent Vitesse du vent Rafales Humidité Pluie (par heure) Conditions
TemperatureC °C DewpointC °C PressurehPa hPa Calm     Humidity % HourlyPrecipMM mm SoftwareType W/m2
00:10 26.2 °C 14.3 °C 1010.6 hPa NNW 10.9 km/h 15 km/h 48 % 0.0 mm open2300-1.11 W/m2
01:10 25.3 °C 14.4 °C 1010.8 hPa NW 25.4 km/h 25.4 km/h 51 % 0.0 mm open2300-1.11 W/m2
02:10 24.4 °C 14.2 °C 1010.6 hPa NW 29.5 km/h 29.5 km/h 53 % 0.0 mm open2300-1.11 W/m2
03:11 23.8 °C 12.1 °C 1010.5 hPa NNW 26.7 km/h 26.7 km/h 48 % 0.0 mm open2300-1.11 W/m2
04:10 22.9 °C 11.9 °C 1010.5 hPa North 27.2 km/h 39.4 km/h 50 % 0.0 mm open2300-1.11 W/m2
05:10 22.7 °C 13.1 °C 1010.5 hPa NNW 30.7 km/h 37.5 km/h 55 % 0.0 mm open2300-1.11 W/m2
06:10 22.3 °C 14.2 °C 1010.8 hPa West 31.4 km/h 34.8 km/h 60 % 0.0 mm open2300-1.11 W/m2
07:10 22.1 °C 14.2 °C 1010.6 hPa NNE 34.8 km/h 56.2 km/h 61 % 0.0 mm open2300-1.11 W/m2
08:10 22.8 °C 14.6 °C 1010.5 hPa NNW 19.2 km/h 36 km/h 60 % 0.0 mm open2300-1.11 W/m2
09:10 22.9 °C 14.9 °C 1010.4 hPa NNW 46.8 km/h 63.7 km/h 61 % 0.0 mm open2300-1.11 W/m2
10:10 24.9 °C 16.1 °C 1010.7 hPa North 12.7 km/h 87.5 km/h 58 % 0.0 mm open2300-1.11 W/m2
11:10 27.1 °C 16.4 °C 1010.9 hPa West 30.7 km/h 30.7 km/h 52 % 0.0 mm open2300-1.11 W/m2
12:10 27.8 °C 16.1 °C 1011.0 hPa West 36 km/h 36 km/h 49 % 0.0 mm open2300-1.11 W/m2
13:10 29.0 °C 16.2 °C 1011.1 hPa NNW 16.3 km/h 49.2 km/h 46 % 0.0 mm open2300-1.11 W/m2
14:10 29.5 °C 15.9 °C 1010.7 hPa WNW 39.9 km/h 59.5 km/h 44 % 0.0 mm open2300-1.11 W/m2
15:10 29.8 °C 15.9 °C 1010.5 hPa WSW 47.3 km/h 47.3 km/h 43 % 0.0 mm open2300-1.11 W/m2
16:10 30.1 °C 15.8 °C 1010.4 hPa NW 21.6 km/h 45.9 km/h 42 % 0.0 mm open2300-1.11 W/m2
17:10 30.1 °C 16.1 °C 1010.4 hPa NW 20.3 km/h 24.3 km/h 43 % 0.0 mm open2300-1.11 W/m2
18:10 30.1 °C 16.1 °C 1010.1 hPa NNW 47.3 km/h 49.7 km/h 43 % 0.0 mm open2300-1.11 W/m2
19:10 28.9 °C 15.8 °C 1010.1 hPa North 9.8 km/h 17.4 km/h 45 % 0.0 mm open2300-1.11 W/m2
20:10 28.5 °C 14.7 °C 1010.0 hPa NW 13.2 km/h 47.3 km/h 43 % 0.0 mm open2300-1.11 W/m2
21:10 27.6 °C 14.9 °C 1010.4 hPa North 10.3 km/h 43.5 km/h 46 % 0.0 mm open2300-1.11 W/m2
22:10 26.9 °C 14.9 °C 1011.4 hPa NNW 10.9 km/h 34.8 km/h 48 % 0.0 mm open2300-1.11 W/m2
23:10 26.2 °C 15.0 °C 1011.8 hPa North 17.9 km/h 36.5 km/h 50 % 0.0 mm open2300-1.11 W/m2
Observations météo à CASSIS
WU-History script by Weather Underground - 1 mb